Time;durP1;ratioP1;P1;durP2;ratioP2;P2;SDS_P1;SDS_P2;PMS_P1;PMS_P2;Temp;Humidity;BMP_temperature;BMP_pressure;BME280_temperature;BME280_humidity;BME280_pressure;Samples;Min_cycle;Max_cycle;Signal;HPM_P1;HPM_P2
2022/12/24 00:02:10;;;;;;;1.30;0.90;;;10.40;99.90;;;;;;5036490;28;20402;-83
2022/12/24 00:04:36;;;;;;;3.37;1.13;;;10.40;99.90;;;;;;5039750;28;20032;-84
2022/12/24 00:07:02;;;;;;;2.27;1.00;;;10.40;99.90;;;;;;5041042;28;20029;-83
2022/12/24 00:09:28;;;;;;;1.30;1.00;;;10.50;99.90;;;;;;5044186;28;20117;-84
2022/12/24 00:11:53;;;;;;;1.67;1.00;;;10.50;99.90;;;;;;5042446;28;20115;-84
2022/12/24 00:14:53;;;;;;;1.90;1.03;;;10.50;99.90;;;;;;5046527;28;20036;-84
2022/12/24 00:17:18;;;;;;;2.40;1.00;;;10.50;99.90;;;;;;5031030;28;20038;-84
2022/12/24 00:19:44;;;;;;;1.23;0.80;;;10.50;99.90;;;;;;5036136;28;20033;-84
2022/12/24 00:22:09;;;;;;;1.83;1.10;;;10.50;99.90;;;;;;5033436;28;20018;-84
2022/12/24 00:24:35;;;;;;;2.03;1.10;;;10.50;99.90;;;;;;5033199;28;20390;-83
2022/12/24 00:27:02;;;;;;;2.93;1.00;;;10.60;99.90;;;;;;5033843;28;20076;-83
2022/12/24 00:29:27;;;;;;;3.27;0.97;;;10.50;99.90;;;;;;5037099;28;20534;-84
2022/12/24 00:31:53;;;;;;;1.43;0.80;;;10.50;99.90;;;;;;5041429;28;20024;-83
2022/12/24 00:34:19;;;;;;;1.80;1.00;;;10.50;99.90;;;;;;5034176;28;20029;-83
2022/12/24 00:36:44;;;;;;;5.57;1.63;;;10.40;99.90;;;;;;5034254;28;20025;-84
2022/12/24 00:39:10;;;;;;;2.43;1.20;;;10.50;99.90;;;;;;5035538;28;20025;-84
2022/12/24 00:41:35;;;;;;;1.20;0.90;;;10.50;99.90;;;;;;5027598;28;20017;-84
2022/12/24 00:44:09;;;;;;;2.23;1.20;;;10.50;99.90;;;;;;5036072;28;20134;-84
2022/12/24 00:46:36;;;;;;;2.27;1.00;;;10.50;99.90;;;;;;5031281;28;20009;-84
2022/12/24 00:49:03;;;;;;;2.53;1.20;;;10.40;99.90;;;;;;5036037;28;20863;-84
2022/12/24 00:51:29;;;;;;;2.90;1.00;;;10.50;99.90;;;;;;5033412;28;20025;-84
2022/12/24 00:53:55;;;;;;;2.30;1.10;;;10.40;99.90;;;;;;5034195;28;20370;-84
2022/12/24 00:56:21;;;;;;;3.23;1.00;;;10.40;99.90;;;;;;5035288;28;20421;-84
2022/12/24 00:58:46;;;;;;;2.30;1.17;;;10.40;99.90;;;;;;5035306;28;20026;-85
2022/12/24 01:01:12;;;;;;;1.73;0.97;;;10.40;99.90;;;;;;5021664;28;20370;-85
2022/12/24 01:03:38;;;;;;;3.73;1.07;;;10.30;99.90;;;;;;5034136;28;20029;-84
2022/12/24 01:06:06;;;;;;;3.60;1.37;;;10.30;99.90;;;;;;5037446;28;20025;-84
2022/12/24 01:08:32;;;;;;;1.73;1.07;;;10.20;99.90;;;;;;5027343;28;20445;-84
2022/12/24 01:10:58;;;;;;;1.87;0.90;;;10.30;99.90;;;;;;5029866;28;20052;-84
2022/12/24 01:13:24;;;;;;;2.70;1.00;;;10.30;99.90;;;;;;5036158;28;20483;-84
2022/12/24 01:15:50;;;;;;;3.70;1.10;;;10.30;99.90;;;;;;5037157;28;20184;-84
2022/12/24 01:18:15;;;;;;;2.23;1.10;;;10.20;99.90;;;;;;5037317;28;20971;-84
2022/12/24 01:20:41;;;;;;;2.23;1.10;;;10.10;99.90;;;;;;5020468;28;20025;-84
2022/12/24 01:23:06;;;;;;;1.73;1.00;;;10.10;99.90;;;;;;5033208;28;20021;-84
2022/12/24 01:25:32;;;;;;;1.20;0.93;;;10.10;99.90;;;;;;5033064;28;20020;-84
2022/12/24 01:27:57;;;;;;;4.13;1.23;;;10.10;99.90;;;;;;5034632;28;20032;-84
2022/12/24 01:30:23;;;;;;;1.80;1.20;;;10.10;99.90;;;;;;5033568;28;20466;-84
2022/12/24 01:32:48;;;;;;;2.27;1.27;;;10.10;99.90;;;;;;5035668;28;20021;-84
2022/12/24 01:35:14;;;;;;;2.17;1.10;;;10.00;99.90;;;;;;5033176;28;20037;-83
2022/12/24 01:37:41;;;;;;;1.53;1.07;;;10.00;99.90;;;;;;5033473;28;20025;-84
2022/12/24 01:45:49;;;;;;;3.57;1.20;;;10.10;99.90;;;;;;5033071;28;20143;-84
2022/12/24 01:48:24;;;;;;;2.17;1.00;;;10.10;99.90;;;;;;5021650;28;20379;-85
2022/12/24 01:51:12;;;;;;;1.60;1.00;;;10.10;99.90;;;;;;5036227;28;20021;-84
2022/12/24 01:53:42;;;;;;;2.13;1.10;;;10.10;99.90;;;;;;5033620;28;20041;-84
2022/12/24 01:56:09;;;;;;;1.53;0.90;;;10.10;99.90;;;;;;5034702;28;20025;-84
2022/12/24 01:58:36;;;;;;;2.40;1.10;;;10.20;99.90;;;;;;5033498;28;20021;-84
2022/12/24 02:01:03;;;;;;;4.57;1.30;;;10.20;99.90;;;;;;5022098;28;20048;-84
2022/12/24 02:03:28;;;;;;;5.03;1.10;;;10.20;99.90;;;;;;5034522;28;20032;-84
2022/12/24 02:05:57;;;;;;;2.87;1.20;;;10.20;99.90;;;;;;5031614;28;20018;-84
2022/12/24 02:08:22;;;;;;;1.23;1.00;;;10.10;99.90;;;;;;5030736;28;20116;-84
2022/12/24 02:10:49;;;;;;;3.00;1.30;;;10.10;99.90;;;;;;5035146;28;20145;-84
2022/12/24 02:13:18;;;;;;;2.67;1.30;;;10.10;99.90;;;;;;5033561;28;20761;-84
2022/12/24 02:16:15;;;;;;;1.67;1.00;;;10.10;99.90;;;;;;5021645;28;20025;-84
2022/12/24 02:22:43;;;;;;;2.67;1.20;;;10.00;99.90;;;;;;5034914;28;20433;-84
2022/12/24 02:25:24;;;;;;;4.80;1.35;;;10.00;99.90;;;;;;5034245;28;20454;-84
2022/12/24 02:28:02;;;;;;;2.60;1.30;;;10.10;99.90;;;;;;5036505;28;20120;-84
2022/12/24 02:30:40;;;;;;;3.23;1.13;;;10.10;99.90;;;;;;5019601;28;21522;-84
2022/12/24 02:33:36;;;;;;;2.17;1.10;;;10.00;99.90;;;;;;5027146;28;20062;-84
2022/12/24 02:36:16;;;;;;;3.40;1.17;;;10.10;99.90;;;;;;5023546;28;20025;-84
2022/12/24 02:39:00;;;;;;;2.50;1.10;;;10.10;99.90;;;;;;5032563;28;20110;-85
2022/12/24 02:42:04;;;;;;;4.57;1.53;;;10.10;99.90;;;;;;5032812;28;20060;-84
2022/12/24 02:44:18;;;;;;;2.57;1.27;;;10.10;99.90;;;;;;5041821;28;20500;-84
2022/12/24 02:46:46;;;;;;;1.70;0.90;;;10.00;99.90;;;;;;5041986;28;20009;-85
2022/12/24 02:49:13;;;;;;;2.93;1.10;;;10.10;99.90;;;;;;5038011;28;20029;-84
2022/12/24 02:51:38;;;;;;;2.67;1.20;;;10.00;99.90;;;;;;5044397;28;20058;-85
2022/12/24 02:54:05;;;;;;;3.77;1.17;;;10.10;99.90;;;;;;5033999;28;20097;-84
2022/12/24 02:57:03;;;;;;;5.07;1.10;;;10.10;99.90;;;;;;5031298;28;20017;-84
2022/12/24 03:00:01;;;;;;;4.40;1.40;;;10.00;99.90;;;;;;5040899;28;20104;-84
2022/12/24 03:03:01;;;;;;;4.67;1.73;;;10.00;99.90;;;;;;5028192;28;20021;-84
2022/12/24 03:05:43;;;;;;;3.90;1.57;;;10.00;99.90;;;;;;5037973;28;20446;-84
2022/12/24 03:08:41;;;;;;;3.37;1.33;;;10.00;99.90;;;;;;5028545;28;20515;-85
2022/12/24 03:11:12;;;;;;;2.37;1.13;;;10.00;99.90;;;;;;5035504;28;20024;-84
2022/12/24 03:13:40;;;;;;;4.83;1.80;;;10.00;99.90;;;;;;5037019;28;20044;-84
2022/12/24 03:16:09;;;;;;;3.17;1.20;;;10.00;99.90;;;;;;5023860;28;20025;-84
2022/12/24 03:18:37;;;;;;;3.63;1.20;;;10.00;99.90;;;;;;5028104;28;20075;-85
2022/12/24 03:21:09;;;;;;;4.63;1.50;;;9.90;99.90;;;;;;5035254;28;20022;-84
2022/12/24 03:23:35;;;;;;;4.20;1.30;;;9.90;99.90;;;;;;5030810;28;20037;-84
2022/12/24 03:26:05;;;;;;;5.00;1.30;;;10.00;99.90;;;;;;5035102;28;20374;-84
2022/12/24 03:28:32;;;;;;;2.70;1.13;;;10.00;99.90;;;;;;5036413;28;20018;-85
2022/12/24 03:31:02;;;;;;;4.33;1.40;;;10.00;99.90;;;;;;5036883;28;20033;-84
2022/12/24 03:33:28;;;;;;;3.63;1.50;;;10.10;99.90;;;;;;5032954;28;20041;-85
2022/12/24 03:35:53;;;;;;;6.17;1.43;;;10.10;99.90;;;;;;5033645;28;20496;-85
2022/12/24 03:38:19;;;;;;;3.27;1.63;;;10.10;99.90;;;;;;5040456;28;20025;-85
2022/12/24 03:40:44;;;;;;;4.03;1.40;;;10.10;99.90;;;;;;5040370;28;20133;-85
2022/12/24 03:43:10;;;;;;;3.57;1.30;;;10.10;99.90;;;;;;5028697;28;20044;-85
2022/12/24 03:45:35;;;;;;;4.63;1.20;;;10.10;99.90;;;;;;5041302;28;20021;-85
2022/12/24 03:48:01;;;;;;;5.63;1.57;;;10.10;99.90;;;;;;5037823;28;20017;-85
2022/12/24 03:50:26;;;;;;;3.43;1.03;;;10.10;99.90;;;;;;5035091;28;20030;-85
2022/12/24 03:52:53;;;;;;;4.47;1.20;;;10.00;99.90;;;;;;5037466;28;20104;-84
2022/12/24 03:55:19;;;;;;;2.83;1.40;;;10.00;99.90;;;;;;5035685;28;20033;-85
2022/12/24 03:57:44;;;;;;;4.43;1.10;;;10.00;99.90;;;;;;5036850;28;20032;-85
2022/12/24 04:00:11;;;;;;;4.30;1.30;;;10.00;99.90;;;;;;5035638;28;20025;-85
2022/12/24 04:02:36;;;;;;;4.03;1.37;;;9.90;99.90;;;;;;5036662;28;20374;-85
2022/12/24 04:05:02;;;;;;;4.37;1.33;;;9.90;99.90;;;;;;5034321;28;20025;-85
2022/12/24 04:07:27;;;;;;;3.37;1.20;;;9.90;99.90;;;;;;5034399;28;20033;-85
2022/12/24 04:09:53;;;;;;;3.23;1.50;;;9.90;99.90;;;;;;5026584;28;20045;-85
2022/12/24 04:12:18;;;;;;;3.63;1.00;;;9.90;99.90;;;;;;5025124;28;20137;-85
2022/12/24 04:14:44;;;;;;;2.27;1.10;;;9.90;99.90;;;;;;5043484;28;20373;-85
2022/12/24 04:17:09;;;;;;;2.53;1.10;;;10.00;99.90;;;;;;5044880;28;20025;-85
2022/12/24 04:19:35;;;;;;;2.77;1.10;;;10.00;99.90;;;;;;5047280;28;20013;-85
2022/12/24 04:22:00;;;;;;;4.37;1.07;;;10.10;99.90;;;;;;5026513;28;20379;-85
2022/12/24 04:24:26;;;;;;;2.90;1.10;;;10.10;99.90;;;;;;5034674;28;20371;-85
2022/12/24 04:26:51;;;;;;;2.13;1.00;;;10.10;99.90;;;;;;5034367;28;20029;-85
2022/12/24 04:29:17;;;;;;;2.57;1.20;;;10.10;99.90;;;;;;5039274;28;20083;-85
2022/12/24 04:31:43;;;;;;;2.80;1.20;;;10.10;99.90;;;;;;5034476;28;20033;-85
2022/12/24 04:34:08;;;;;;;4.17;1.27;;;10.10;99.90;;;;;;5037373;28;20034;-85
2022/12/24 04:36:33;;;;;;;5.03;1.30;;;10.20;99.90;;;;;;5037384;28;20121;-85
2022/12/24 04:38:59;;;;;;;5.03;1.70;;;10.10;99.90;;;;;;5035167;28;20398;-85
2022/12/24 04:41:24;;;;;;;3.53;1.20;;;10.10;99.90;;;;;;5033785;28;20025;-85
2022/12/24 04:43:52;;;;;;;6.00;1.17;;;10.10;99.90;;;;;;5045711;28;20089;-85
2022/12/24 04:46:20;;;;;;;2.03;1.00;;;10.10;99.90;;;;;;5034119;28;20025;-85
2022/12/24 04:48:47;;;;;;;3.37;1.30;;;10.10;99.90;;;;;;5040466;28;20019;-86
2022/12/24 04:51:14;;;;;;;4.10;1.53;;;10.10;99.90;;;;;;5039175;28;20079;-86
2022/12/24 04:53:41;;;;;;;1.97;0.97;;;10.10;99.90;;;;;;5048189;28;20056;-86
2022/12/24 04:56:19;;;;;;;2.50;1.00;;;10.00;99.90;;;;;;5029803;28;20083;-86
2022/12/24 04:58:45;;;;;;;2.37;1.20;;;10.10;99.90;;;;;;5033820;28;20032;-86
2022/12/24 05:01:17;;;;;;;3.30;1.20;;;10.00;99.90;;;;;;5033686;28;20029;-86
2022/12/24 05:03:43;;;;;;;2.77;1.20;;;10.00;99.90;;;;;;5037068;28;20474;-85
2022/12/24 05:06:11;;;;;;;4.10;1.00;;;10.00;99.90;;;;;;5032406;28;20075;-85
2022/12/24 05:08:37;;;;;;;3.97;1.63;;;10.00;99.90;;;;;;5030997;28;20064;-86
2022/12/24 05:11:03;;;;;;;3.30;1.17;;;9.90;99.90;;;;;;5044590;28;20060;-85
2022/12/24 05:13:29;;;;;;;6.00;1.60;;;9.90;99.90;;;;;;5039886;28;20021;-85
2022/12/24 05:15:55;;;;;;;5.77;1.53;;;9.90;99.90;;;;;;5035387;28;20087;-85
2022/12/24 05:18:21;;;;;;;6.13;1.87;;;9.90;99.90;;;;;;5025084;28;20029;-85
2022/12/24 05:20:47;;;;;;;5.97;1.30;;;9.90;99.90;;;;;;5060346;28;20383;-86
2022/12/24 05:26:22;;;;;;;2.97;1.17;;;9.90;99.90;;;;;;5020754;28;20047;-84
2022/12/24 05:28:49;;;;;;;5.77;1.50;;;9.90;99.90;;;;;;5023072;28;20076;-84
2022/12/24 05:31:15;;;;;;;4.27;1.40;;;9.90;99.90;;;;;;5038329;28;20047;-84
2022/12/24 05:33:41;;;;;;;4.37;1.17;;;10.00;99.90;;;;;;5039741;28;20025;-84
2022/12/24 05:36:07;;;;;;;5.83;1.40;;;10.00;99.90;;;;;;5040075;28;21370;-85
2022/12/24 05:38:32;;;;;;;6.53;1.43;;;10.00;99.90;;;;;;5037473;28;20033;-84
2022/12/24 05:40:58;;;;;;;3.43;1.30;;;9.90;99.90;;;;;;5034061;28;20501;-85
2022/12/24 05:43:24;;;;;;;3.10;1.23;;;9.90;99.90;;;;;;5025776;28;20064;-84
2022/12/24 05:45:49;;;;;;;3.40;1.80;;;9.80;99.90;;;;;;5041316;28;20016;-84
2022/12/24 05:48:15;;;;;;;5.47;1.87;;;9.90;99.90;;;;;;5036610;28;20474;-84
2022/12/24 05:50:40;;;;;;;4.80;1.50;;;9.90;99.90;;;;;;5041750;28;20059;-85
2022/12/24 05:53:06;;;;;;;3.37;1.10;;;9.90;99.90;;;;;;5039542;28;20063;-84
2022/12/24 05:55:33;;;;;;;5.50;1.50;;;9.90;99.90;;;;;;5034021;28;20063;-84
2022/12/24 05:57:58;;;;;;;4.63;1.53;;;9.90;99.90;;;;;;5022928;28;20033;-84
2022/12/24 06:00:24;;;;;;;4.10;1.40;;;9.90;99.90;;;;;;5035175;28;20111;-84
2022/12/24 06:02:49;;;;;;;5.47;1.40;;;9.90;99.90;;;;;;5040729;28;20037;-85
2022/12/24 06:05:15;;;;;;;1.97;1.00;;;9.90;99.90;;;;;;5037472;28;20025;-85
2022/12/24 06:07:40;;;;;;;3.60;1.23;;;9.90;99.90;;;;;;5037592;28;20021;-84
2022/12/24 06:10:06;;;;;;;3.87;1.53;;;9.90;99.90;;;;;;5036588;28;20533;-85
2022/12/24 06:12:32;;;;;;;5.17;1.40;;;9.80;99.90;;;;;;5030886;28;20164;-85
2022/12/24 06:14:57;;;;;;;3.97;1.20;;;9.90;99.90;;;;;;5037858;28;20057;-85
2022/12/24 06:17:23;;;;;;;6.20;1.70;;;9.90;99.90;;;;;;5032137;28;20024;-84
2022/12/24 06:19:49;;;;;;;4.53;1.23;;;9.90;99.90;;;;;;5014192;28;20021;-85
2022/12/24 06:22:14;;;;;;;5.23;1.10;;;9.80;99.90;;;;;;5040950;28;20025;-84
2022/12/24 06:24:40;;;;;;;5.93;1.37;;;9.80;99.90;;;;;;5038604;28;20183;-85
2022/12/24 06:27:05;;;;;;;5.60;1.30;;;9.80;99.90;;;;;;5018939;28;20017;-85
2022/12/24 06:29:31;;;;;;;2.47;1.10;;;9.70;99.90;;;;;;5028432;28;20115;-84
2022/12/24 06:31:56;;;;;;;4.20;1.37;;;9.70;99.90;;;;;;5013880;28;20465;-82
2022/12/24 06:34:22;;;;;;;4.63;1.20;;;9.70;99.90;;;;;;5037111;28;20485;-82
2022/12/24 06:36:48;;;;;;;4.30;1.50;;;9.60;99.90;;;;;;5035556;28;20397;-82
2022/12/24 06:39:14;;;;;;;4.00;1.13;;;9.60;99.90;;;;;;5036096;28;20037;-91
2022/12/24 06:41:39;;;;;;;3.97;1.10;;;9.60;99.90;;;;;;5033817;28;20128;-80
2022/12/24 06:44:05;;;;;;;2.17;1.00;;;9.50;99.90;;;;;;5027914;28;20030;-80
2022/12/24 06:46:30;;;;;;;4.17;1.37;;;9.50;99.90;;;;;;5030868;28;20028;-80
2022/12/24 06:48:56;;;;;;;3.27;1.30;;;9.50;99.90;;;;;;5031819;28;20056;-80
2022/12/24 06:51:21;;;;;;;5.20;1.60;;;9.40;99.90;;;;;;5033948;28;20017;-79
2022/12/24 06:53:49;;;;;;;3.57;1.43;;;9.50;99.90;;;;;;5038152;28;20030;-85
2022/12/24 06:56:15;;;;;;;3.87;1.30;;;9.50;99.90;;;;;;5039049;28;20445;-81
2022/12/24 06:58:42;;;;;;;2.87;1.30;;;9.40;99.90;;;;;;5039382;28;20019;-81
2022/12/24 07:01:11;;;;;;;2.63;1.10;;;9.40;99.90;;;;;;5038167;28;20029;-81
2022/12/24 07:03:36;;;;;;;3.87;1.73;;;9.40;99.90;;;;;;5031621;28;20045;-81
2022/12/24 07:06:02;;;;;;;4.30;1.20;;;9.40;99.90;;;;;;5027726;28;20471;-81
2022/12/24 07:08:28;;;;;;;4.17;1.23;;;9.30;99.90;;;;;;5037315;28;20168;-81
2022/12/24 07:10:54;;;;;;;3.07;1.27;;;9.30;99.90;;;;;;5039166;28;20033;-81
2022/12/24 07:13:19;;;;;;;3.87;1.50;;;9.30;99.90;;;;;;5030894;28;20471;-81
2022/12/24 07:15:45;;;;;;;2.07;1.13;;;9.30;99.90;;;;;;5032047;28;20025;-80
2022/12/24 07:18:11;;;;;;;2.23;1.10;;;9.30;99.90;;;;;;5019306;28;20112;-82
2022/12/24 07:20:37;;;;;;;2.77;1.30;;;9.30;99.90;;;;;;5038200;28;20021;-81
2022/12/24 07:23:02;;;;;;;2.00;1.20;;;9.20;99.90;;;;;;5036974;28;20144;-90
2022/12/24 07:25:28;;;;;;;2.67;1.17;;;9.20;99.90;;;;;;5037553;28;20025;-82
2022/12/24 07:27:57;;;;;;;6.60;1.60;;;9.30;99.90;;;;;;5030978;28;20048;-94
2022/12/24 07:30:22;;;;;;;2.73;1.20;;;9.30;99.90;;;;;;5015861;28;20048;-81
2022/12/24 07:32:48;;;;;;;3.47;1.37;;;9.20;99.90;;;;;;5014127;28;20037;-81
2022/12/24 07:35:13;;;;;;;4.23;1.33;;;9.20;99.90;;;;;;5026165;28;20145;-81
2022/12/24 07:37:39;;;;;;;3.30;1.43;;;9.30;99.90;;;;;;5026708;28;20030;-81
2022/12/24 07:40:06;;;;;;;2.93;1.17;;;9.30;99.90;;;;;;5029653;28;20030;-81
2022/12/24 07:42:33;;;;;;;3.60;1.30;;;9.30;99.90;;;;;;5026950;28;20068;-81
2022/12/24 07:44:58;;;;;;;6.20;1.40;;;9.30;99.90;;;;;;5032259;28;20061;-81
2022/12/24 07:47:24;;;;;;;3.90;1.30;;;9.20;99.90;;;;;;5029601;28;20079;-81
2022/12/24 07:49:49;;;;;;;3.07;1.20;;;9.20;99.90;;;;;;5031694;28;20057;-79
2022/12/24 07:52:15;;;;;;;2.37;1.23;;;9.20;99.90;;;;;;5031127;28;20465;-81
2022/12/24 07:54:41;;;;;;;4.10;1.60;;;9.20;99.90;;;;;;5030042;28;20075;-82
2022/12/24 07:57:06;;;;;;;4.77;2.37;;;9.20;99.90;;;;;;5034013;28;20113;-81
2022/12/24 07:59:32;;;;;;;3.40;1.90;;;9.10;99.90;;;;;;5030180;28;20035;-82
2022/12/24 08:01:57;;;;;;;3.10;1.60;;;9.10;99.90;;;;;;5031621;28;20368;-77
2022/12/24 08:04:23;;;;;;;2.63;1.50;;;9.10;99.90;;;;;;5022539;28;20025;-81
2022/12/24 08:06:48;;;;;;;4.17;1.60;;;9.10;99.90;;;;;;5032152;28;20034;-82
2022/12/24 08:09:14;;;;;;;1.73;1.03;;;9.20;99.90;;;;;;5032016;28;20136;-79
2022/12/24 08:11:40;;;;;;;2.97;1.33;;;9.30;99.90;;;;;;5018679;28;20084;-80
2022/12/24 08:14:05;;;;;;;2.60;1.10;;;9.20;99.90;;;;;;5031842;28;20100;-80
2022/12/24 08:16:31;;;;;;;2.90;1.30;;;9.30;99.90;;;;;;5031777;28;20132;-77
2022/12/24 08:18:56;;;;;;;1.57;0.90;;;9.20;99.90;;;;;;5032625;28;20060;-80
2022/12/24 08:21:22;;;;;;;2.00;1.00;;;9.30;99.90;;;;;;5032490;28;20488;-79
2022/12/24 08:23:47;;;;;;;4.97;1.37;;;9.30;99.90;;;;;;5033050;28;20678;-79
2022/12/24 08:26:13;;;;;;;2.20;1.00;;;9.30;99.90;;;;;;5032330;28;20053;-79
2022/12/24 08:28:38;;;;;;;3.47;1.13;;;9.30;99.90;;;;;;5033023;28;20497;-78
2022/12/24 08:31:05;;;;;;;2.50;1.10;;;9.30;99.90;;;;;;5039466;28;20036;-80
2022/12/24 08:33:31;;;;;;;1.87;1.00;;;9.30;99.90;;;;;;5038538;28;20057;-80
2022/12/24 08:35:56;;;;;;;1.63;0.87;;;9.40;99.90;;;;;;5030406;28;20099;-80
2022/12/24 08:38:22;;;;;;;2.03;0.83;;;9.30;99.90;;;;;;5016597;28;20488;-80
2022/12/24 08:40:48;;;;;;;1.67;1.10;;;9.40;99.90;;;;;;5030979;28;20053;-80
2022/12/24 08:43:18;;;;;;;4.80;1.23;;;9.30;99.90;;;;;;5030410;28;20545;-80
2022/12/24 08:45:45;;;;;;;4.57;1.07;;;9.30;99.90;;;;;;5015296;28;20060;-80
2022/12/24 08:48:10;;;;;;;3.63;1.20;;;9.30;99.90;;;;;;5017316;28;20033;-80
2022/12/24 08:50:40;;;;;;;2.40;1.07;;;9.30;99.90;;;;;;5032659;28;20028;-80
2022/12/24 08:53:05;;;;;;;2.50;0.90;;;9.30;99.90;;;;;;5031345;28;20057;-80
2022/12/24 08:55:31;;;;;;;2.70;1.20;;;9.30;99.90;;;;;;5033375;28;20126;-80
2022/12/24 08:57:57;;;;;;;3.10;1.33;;;9.30;99.90;;;;;;5042515;28;20480;-87
2022/12/24 09:00:22;;;;;;;4.73;0.97;;;9.30;99.90;;;;;;5022408;28;20383;-80
2022/12/24 09:02:48;;;;;;;2.60;1.43;;;9.30;99.90;;;;;;5031849;28;20017;-80
2022/12/24 09:05:14;;;;;;;2.53;1.10;;;9.30;99.90;;;;;;5033840;28;20026;-80
2022/12/24 09:07:39;;;;;;;3.17;0.93;;;9.30;99.90;;;;;;5030715;28;20549;-80
2022/12/24 09:10:05;;;;;;;4.33;1.40;;;9.30;99.90;;;;;;5033103;28;20049;-80
2022/12/24 09:12:31;;;;;;;5.27;1.20;;;9.30;99.90;;;;;;5031492;28;20038;-80
2022/12/24 09:14:57;;;;;;;2.47;0.90;;;9.40;99.90;;;;;;5037962;28;20362;-80
2022/12/24 09:17:22;;;;;;;4.13;1.30;;;9.40;99.90;;;;;;5023011;28;20028;-81
2022/12/24 09:19:48;;;;;;;5.67;1.20;;;9.40;99.90;;;;;;5030409;28;20492;-82
2022/12/24 09:22:13;;;;;;;4.20;1.30;;;9.50;99.90;;;;;;5029834;28;20116;-79
2022/12/24 09:24:39;;;;;;;3.40;1.10;;;9.50;99.90;;;;;;5030447;28;20028;-79
2022/12/24 09:27:05;;;;;;;21.70;6.97;;;9.50;99.90;;;;;;5017758;28;20072;-82
2022/12/24 09:29:30;;;;;;;2.90;1.10;;;9.60;99.90;;;;;;5020495;28;20029;-80
2022/12/24 09:31:56;;;;;;;2.20;0.90;;;9.60;99.90;;;;;;5030298;28;20026;-80
2022/12/24 09:34:22;;;;;;;1.90;1.00;;;9.60;99.90;;;;;;5033918;28;20072;-82
2022/12/24 09:36:48;;;;;;;4.33;1.00;;;9.50;99.90;;;;;;5020343;28;20040;-80
2022/12/24 09:39:14;;;;;;;3.10;1.10;;;9.60;99.90;;;;;;5031245;28;20033;-82
2022/12/24 09:41:54;;;;;;;339.43;21.43;;;9.60;99.90;;;;;;5029884;28;20021;-85
2022/12/24 09:44:32;;;;;;;317.67;20.13;;;9.60;99.90;;;;;;5029703;28;20030;-83
2022/12/24 09:47:02;;;;;;;9.33;1.30;;;9.60;99.90;;;;;;5025229;28;20029;-82
2022/12/24 09:49:42;;;;;;;6.13;1.00;;;9.70;99.90;;;;;;5029693;28;20025;-83
2022/12/24 09:52:16;;;;;;;19.47;2.03;;;9.60;99.90;;;;;;5029488;28;20153;-80
2022/12/24 09:54:47;;;;;;;4.17;1.30;;;9.60;99.90;;;;;;5031239;28;20497;-83
2022/12/24 09:57:40;;;;;;;3.83;1.70;;;9.60;99.90;;;;;;5029196;28;20116;-81
2022/12/24 10:00:26;;;;;;;4.83;1.80;;;9.60;99.90;;;;;;5006421;28;20051;-82
2022/12/24 10:02:52;;;;;;;36.17;3.80;;;9.50;99.90;;;;;;5024875;28;20045;-83
2022/12/24 10:05:39;;;;;;;6.17;2.10;;;9.70;99.90;;;;;;5029053;28;20026;-83
2022/12/24 10:08:22;;;;;;;8.33;1.80;;;9.60;99.90;;;;;;5025449;28;20370;-82
2022/12/24 10:10:57;;;;;;;3.93;1.20;;;9.60;99.90;;;;;;5033052;28;20080;-80
2022/12/24 10:13:49;;;;;;;5.70;1.33;;;9.70;99.90;;;;;;5031608;28;20057;-82
2022/12/24 10:16:38;;;;;;;4.50;1.77;;;9.70;99.90;;;;;;5035617;28;21364;-82
2022/12/24 10:19:32;;;;;;;4.37;1.63;;;9.80;99.90;;;;;;5032646;28;20049;-81
2022/12/24 10:22:19;;;;;;;4.70;1.73;;;9.70;99.90;;;;;;5009969;28;20115;-81
2022/12/24 10:24:51;;;;;;;3.87;1.30;;;9.70;99.90;;;;;;5038052;28;20032;-81
2022/12/24 10:27:20;;;;;;;5.63;1.77;;;9.70;99.90;;;;;;5031509;28;20032;-80
2022/12/24 10:29:55;;;;;;;3.10;1.43;;;9.60;99.90;;;;;;5013310;28;20466;-81
2022/12/24 10:32:24;;;;;;;4.07;1.42;;;9.60;99.90;;;;;;5030482;28;20195;-80
2022/12/24 10:35:00;;;;;;;6.07;1.60;;;9.50;99.90;;;;;;5031619;28;20064;-81
2022/12/24 10:37:28;;;;;;;4.60;1.63;;;9.30;99.90;;;;;;5030206;28;20462;-80
2022/12/24 10:39:55;;;;;;;3.23;1.50;;;9.30;99.90;;;;;;5035226;28;20025;-81
2022/12/24 10:42:25;;;;;;;5.20;1.60;;;9.20;99.90;;;;;;5030437;28;20020;-81
2022/12/24 10:44:56;;;;;;;4.40;1.40;;;9.10;99.90;;;;;;5034359;28;20024;-81
2022/12/24 10:47:22;;;;;;;2.63;1.30;;;9.10;99.90;;;;;;5034038;28;20115;-81
2022/12/24 10:50:02;;;;;;;6.23;2.07;;;9.10;99.90;;;;;;5032523;28;20455;-82
2022/12/24 10:52:34;;;;;;;10.30;2.43;;;9.10;99.90;;;;;;5034028;28;21374;-82
2022/12/24 10:55:09;;;;;;;8.30;2.47;;;9.00;99.90;;;;;;5032778;28;20028;-82
2022/12/24 10:57:36;;;;;;;6.10;1.87;;;9.10;99.90;;;;;;5030738;28;20049;-82
2022/12/24 11:00:05;;;;;;;4.73;1.70;;;9.20;99.90;;;;;;5035611;28;20024;-85
2022/12/24 11:02:36;;;;;;;5.53;2.00;;;9.30;99.90;;;;;;5040776;28;20446;-85
2022/12/24 11:05:27;;;;;;;8.53;2.50;;;9.30;99.90;;;;;;5040166;28;20052;-87
2022/12/24 11:08:06;;;;;;;7.20;2.23;;;9.30;99.90;;;;;;5018760;28;20025;-88
2022/12/24 11:10:35;;;;;;;4.73;1.73;;;9.40;99.90;;;;;;5037824;28;20461;-87
2022/12/24 11:13:01;;;;;;;3.77;1.70;;;9.50;99.90;;;;;;5035915;28;20025;-88
2022/12/24 11:15:35;;;;;;;4.70;1.77;;;9.60;99.90;;;;;;5042643;28;20028;-87
2022/12/24 11:18:12;;;;;;;4.87;1.50;;;9.80;99.90;;;;;;5046426;28;20036;-87
2022/12/24 11:20:38;;;;;;;3.23;1.40;;;9.90;99.90;;;;;;5048077;28;20037;-87
2022/12/24 11:23:04;;;;;;;2.97;1.07;;;10.00;99.90;;;;;;5045836;28;20470;-87
2022/12/24 11:25:32;;;;;;;4.77;1.17;;;10.20;99.90;;;;;;5044249;28;20021;-87
2022/12/24 11:28:20;;;;;;;5.13;1.50;;;10.30;99.90;;;;;;5037933;28;20073;-86
2022/12/24 11:31:02;;;;;;;7.53;1.70;;;10.30;99.90;;;;;;5026805;28;20029;-87
2022/12/24 11:33:29;;;;;;;3.77;1.20;;;10.30;99.90;;;;;;5045615;28;20458;-86
2022/12/24 11:36:05;;;;;;;4.43;1.47;;;10.30;99.90;;;;;;5041475;28;20087;-85
2022/12/24 11:38:32;;;;;;;6.43;1.30;;;10.40;99.90;;;;;;5055805;28;20025;-86
2022/12/24 11:41:02;;;;;;;6.40;1.50;;;10.40;99.90;;;;;;5049452;28;20068;-87
2022/12/24 11:43:45;;;;;;;3.73;1.53;;;10.30;99.90;;;;;;5047789;28;20037;-87
2022/12/24 11:46:13;;;;;;;4.80;1.37;;;10.30;99.90;;;;;;4998537;28;20065;-88
2022/12/24 11:48:39;;;;;;;7.53;1.40;;;10.30;99.90;;;;;;5044629;28;20026;-86
2022/12/24 11:51:17;;;;;;;3.00;1.23;;;10.20;99.90;;;;;;5040620;28;20044;-87
2022/12/24 11:53:51;;;;;;;5.37;1.53;;;10.30;99.90;;;;;;5039109;28;21448;-86
2022/12/24 11:56:43;;;;;;;4.15;1.20;;;10.20;99.90;;;;;;5043390;28;20147;-76
2022/12/24 11:59:17;;;;;;;5.43;1.87;;;10.20;99.90;;;;;;5042263;28;20029;-87
2022/12/24 12:02:01;;;;;;;5.30;2.17;;;10.10;99.90;;;;;;5050605;28;20021;-88
2022/12/24 12:04:33;;;;;;;2.83;1.10;;;10.10;99.90;;;;;;5047987;28;20013;-87
2022/12/24 12:07:17;;;;;;;4.83;1.50;;;10.00;99.90;;;;;;5042916;28;20074;-87
2022/12/24 12:09:55;;;;;;;3.13;1.30;;;10.00;99.90;;;;;;5010498;28;20068;-87
2022/12/24 12:12:25;;;;;;;4.87;1.40;;;9.90;99.90;;;;;;5039918;28;21326;-87
2022/12/24 12:15:04;;;;;;;4.63;1.50;;;9.90;99.90;;;;;;5046161;28;20032;-87
2022/12/24 12:17:59;;;;;;;4.03;1.53;;;9.90;99.90;;;;;;5039204;28;20048;-87
2022/12/24 12:20:45;;;;;;;5.47;1.30;;;9.80;99.90;;;;;;5043416;28;20041;-87
2022/12/24 12:23:28;;;;;;;7.70;2.17;;;9.80;99.90;;;;;;5043543;28;20060;-88
2022/12/24 12:26:03;;;;;;;3.03;1.40;;;9.80;99.90;;;;;;5023236;28;20500;-87
2022/12/24 12:28:48;;;;;;;5.80;1.70;;;9.80;99.90;;;;;;5041266;28;20021;-87
2022/12/24 12:31:28;;;;;;;4.40;1.40;;;9.70;99.90;;;;;;5037501;28;20396;-88
2022/12/24 12:34:02;;;;;;;4.10;1.30;;;9.70;99.90;;;;;;5040324;28;20049;-89
2022/12/24 12:36:38;;;;;;;4.37;1.40;;;9.70;99.90;;;;;;5038793;28;20682;-88
2022/12/24 12:39:04;;;;;;;3.87;1.40;;;9.60;99.90;;;;;;5039793;28;20024;-87
2022/12/24 12:41:59;;;;;;;3.57;1.20;;;9.60;99.90;;;;;;5039000;28;20028;-87
2022/12/24 12:44:37;;;;;;;1.90;0.90;;;9.50;99.90;;;;;;5030207;28;20102;-88
2022/12/24 12:47:27;;;;;;;2.70;1.10;;;9.60;99.90;;;;;;5034987;28;20130;-88
2022/12/24 12:50:11;;;;;;;4.30;1.60;;;9.70;99.90;;;;;;5029719;28;20478;-81
2022/12/24 12:52:42;;;;;;;4.87;1.50;;;9.70;99.90;;;;;;5027741;28;20151;-75
2022/12/24 12:55:19;;;;;;;4.53;1.20;;;9.70;99.90;;;;;;5028284;28;20025;-86
2022/12/24 12:57:46;;;;;;;4.17;1.40;;;9.70;99.90;;;;;;5037082;28;20021;-86
2022/12/24 13:00:16;;;;;;;5.07;1.47;;;9.70;99.90;;;;;;5022116;28;20029;-86
2022/12/24 13:03:06;;;;;;;2.93;1.37;;;9.60;99.90;;;;;;5020679;28;20025;-87
2022/12/24 13:06:02;;;;;;;5.70;1.90;;;9.60;99.90;;;;;;5033850;28;20071;-74
2022/12/24 13:08:33;;;;;;;5.17;1.53;;;9.60;99.90;;;;;;5024973;28;20041;-75
2022/12/24 13:11:10;;;;;;;3.67;1.40;;;9.70;99.90;;;;;;5035804;28;20028;-87
2022/12/24 13:13:51;;;;;;;5.07;1.20;;;9.80;99.90;;;;;;5039127;28;20374;-87
2022/12/24 13:16:39;;;;;;;4.63;1.30;;;9.90;99.90;;;;;;5034088;28;20031;-87
2022/12/24 13:19:17;;;;;;;2.70;1.30;;;10.00;99.90;;;;;;5037707;28;20445;-87
2022/12/24 13:21:47;;;;;;;6.33;1.23;;;10.10;99.90;;;;;;5044476;28;20072;-87